Weather at Stenkovec Brazda Airport

Public forecast

Using degrees Celsius for public forecast. Weather courtesy of forecast.io.

Closest aviation weather report (METAR) to Stenkovec Brazda Airport

Closest report is Skopje International Airport, 11.9 nm (22.1 km) ESE. Retrieved 2022/07/02 17:30 UTC (7 minutes ago):

LWSK 021730Z 25002KT 9999 FEW050 28/17 Q1017 NOSIG

Closest aviation forecast (TAF) to Stenkovec Brazda Airport

Closest forecast is Skopje International Airport, 11.9 nm (22.1 km) ESE. Retrieved 2022/07/02 15:24 UTC (2 hours ago):

TAF LWSK 021430Z 0215/0315 VRB02KT 9999 SCT060 TEMPO 0215/0219 VRB20KT TSRA FEW035CB BKN060